Time;durP1;ratioP1;P1;durP2;ratioP2;P2;SDS_P1;SDS_P2;PMS_P1;PMS_P2;Temp;Humidity;BMP_temperature;BMP_pressure;BME280_temperature;BME280_humidity;BME280_pressure;Samples;Min_cycle;Max_cycle;Signal;HPM_P1;HPM_P2
2022/10/05 00:02:33;;;;;;;23.55;16.30;;;7.80;99.90;;;;;;2603412;54;20775;31
2022/10/05 00:05:18;;;;;;;19.02;12.82;;;7.90;99.90;;;;;;2608449;46;20867;31
2022/10/05 00:07:54;;;;;;;19.42;11.57;;;7.80;99.90;;;;;;2603210;54;20030;31
2022/10/05 00:10:30;;;;;;;23.65;15.02;;;7.80;99.90;;;;;;2604017;46;20027;31
2022/10/05 00:13:03;;;;;;;23.77;13.88;;;7.80;99.90;;;;;;2603127;54;20827;31
2022/10/05 00:15:39;;;;;;;24.08;14.65;;;7.90;99.90;;;;;;2603180;54;20053;31
2022/10/05 00:18:15;;;;;;;22.70;14.88;;;7.90;99.90;;;;;;2602738;54;20859;31
2022/10/05 00:20:51;;;;;;;19.60;13.05;;;7.90;99.90;;;;;;2603167;54;20819;31
2022/10/05 00:23:28;;;;;;;24.23;12.32;;;7.90;99.90;;;;;;2603375;54;20891;31
2022/10/05 00:26:10;;;;;;;25.20;16.00;;;7.80;99.90;;;;;;2603301;54;20042;31
2022/10/05 00:28:44;;;;;;;33.42;14.85;;;7.90;99.90;;;;;;2603209;54;20241;31
2022/10/05 00:31:21;;;;;;;23.20;13.60;;;7.80;99.90;;;;;;2621991;46;20797;31
2022/10/05 00:33:56;;;;;;;18.00;11.75;;;7.80;99.90;;;;;;2603162;54;20817;31
2022/10/05 00:36:32;;;;;;;21.87;13.27;;;7.90;99.90;;;;;;2603308;54;20045;31
2022/10/05 00:39:09;;;;;;;22.77;14.35;;;7.90;99.90;;;;;;2603233;54;21208;31
2022/10/05 00:41:56;;;;;;;25.90;15.55;;;7.80;99.90;;;;;;2621634;46;20888;31
2022/10/05 00:44:37;;;;;;;19.85;13.68;;;7.80;99.90;;;;;;2622011;46;20027;31
2022/10/05 00:47:28;;;;;;;19.73;13.73;;;7.80;99.90;;;;;;2603006;54;20027;31
2022/10/05 00:50:14;;;;;;;20.10;12.73;;;7.80;99.90;;;;;;2603104;54;20912;31
2022/10/05 00:52:53;;;;;;;21.55;13.95;;;7.80;99.90;;;;;;2603075;54;20029;31
2022/10/05 00:55:33;;;;;;;20.35;12.65;;;7.80;99.90;;;;;;2602986;54;20026;31
2022/10/05 00:58:16;;;;;;;22.65;14.07;;;7.80;99.90;;;;;;2603029;54;19941;31
2022/10/05 01:00:55;;;;;;;21.55;13.95;;;7.80;99.90;;;;;;2603069;54;20030;31
2022/10/05 01:03:33;;;;;;;20.90;12.43;;;7.80;99.90;;;;;;2602923;54;20916;31
2022/10/05 01:06:12;;;;;;;30.10;16.20;;;7.80;99.90;;;;;;2604001;47;20049;31
2022/10/05 01:08:49;;;;;;;22.80;13.95;;;7.80;99.90;;;;;;2603056;54;20026;31
2022/10/05 01:11:23;;;;;;;22.77;15.40;;;7.80;99.90;;;;;;2621581;47;20042;31
2022/10/05 01:14:02;;;;;;;22.30;12.03;;;7.80;99.90;;;;;;2621367;47;20089;31
2022/10/05 01:16:40;;;;;;;25.87;16.60;;;7.80;99.90;;;;;;2602951;54;20014;31
2022/10/05 01:19:33;;;;;;;19.80;14.55;;;7.80;99.90;;;;;;2602884;54;19954;31
2022/10/05 01:22:11;;;;;;;26.23;14.43;;;7.80;99.90;;;;;;2603239;54;20043;31
2022/10/05 01:24:51;;;;;;;24.25;14.55;;;7.80;99.90;;;;;;2602698;54;20077;31
2022/10/05 01:27:43;;;;;;;24.35;14.65;;;7.70;99.90;;;;;;2603086;54;20922;31
2022/10/05 01:30:17;;;;;;;20.38;12.60;;;7.70;99.90;;;;;;2622646;46;20843;31
2022/10/05 01:32:55;;;;;;;24.73;14.82;;;7.70;99.90;;;;;;2603756;54;20030;31
2022/10/05 01:35:38;;;;;;;22.38;14.82;;;7.70;99.90;;;;;;2622303;46;20163;31
2022/10/05 01:38:31;;;;;;;20.98;13.95;;;7.70;99.90;;;;;;2603678;54;20161;31
2022/10/05 01:41:12;;;;;;;21.70;14.25;;;7.70;99.90;;;;;;2603678;54;20844;31
2022/10/05 01:43:50;;;;;;;20.27;13.68;;;7.70;99.90;;;;;;2603515;54;20900;31
2022/10/05 01:46:27;;;;;;;24.02;14.77;;;7.70;99.90;;;;;;2603719;54;20046;31
2022/10/05 01:49:24;;;;;;;23.05;15.07;;;7.70;99.90;;;;;;2603643;54;20061;31
2022/10/05 01:52:04;;;;;;;18.90;14.40;;;7.60;99.90;;;;;;2603813;54;20849;31
2022/10/05 01:54:42;;;;;;;25.73;14.03;;;7.60;99.90;;;;;;2603505;54;20030;31
2022/10/05 01:57:25;;;;;;;20.53;14.03;;;7.60;99.90;;;;;;2603756;54;20849;31
2022/10/05 02:00:18;;;;;;;21.15;14.70;;;7.60;99.90;;;;;;2603459;54;20899;31
2022/10/05 02:02:54;;;;;;;25.77;16.17;;;7.70;99.90;;;;;;2621615;46;20032;31
2022/10/05 02:05:32;;;;;;;22.98;15.32;;;7.60;99.90;;;;;;2603498;54;20906;31
2022/10/05 02:08:09;;;;;;;19.45;15.05;;;7.50;99.90;;;;;;2603500;54;20823;31
2022/10/05 02:10:45;;;;;;;23.02;15.18;;;7.50;99.90;;;;;;2603464;54;20950;31
2022/10/05 02:13:21;;;;;;;23.15;15.35;;;7.50;99.90;;;;;;2603771;54;20030;31
2022/10/05 02:16:00;;;;;;;28.70;16.00;;;7.50;99.90;;;;;;2603496;54;20057;31
2022/10/05 02:18:37;;;;;;;25.70;15.87;;;7.50;99.90;;;;;;2603748;54;20056;31
2022/10/05 02:21:11;;;;;;;26.48;16.90;;;7.50;99.90;;;;;;2603577;54;21155;31
2022/10/05 02:23:45;;;;;;;27.70;18.10;;;7.50;99.90;;;;;;2615425;46;20027;31
2022/10/05 02:26:20;;;;;;;26.00;16.73;;;7.50;99.90;;;;;;2603699;54;20854;31
2022/10/05 02:28:56;;;;;;;26.70;16.65;;;7.50;99.90;;;;;;2603715;54;20022;31
2022/10/05 02:31:41;;;;;;;27.10;17.02;;;7.50;99.90;;;;;;2603416;54;20938;31
2022/10/05 02:34:23;;;;;;;27.73;17.85;;;7.50;99.90;;;;;;2603465;54;20050;31
2022/10/05 02:37:13;;;;;;;29.90;18.30;;;7.50;99.90;;;;;;2603449;54;20108;31
2022/10/05 02:39:53;;;;;;;28.10;17.92;;;7.40;99.90;;;;;;2603189;54;20907;31
2022/10/05 02:42:30;;;;;;;27.88;17.70;;;7.40;99.90;;;;;;2603226;54;20085;31
2022/10/05 02:45:09;;;;;;;32.13;19.83;;;7.40;99.90;;;;;;2603431;54;20782;31
2022/10/05 02:47:48;;;;;;;27.23;18.33;;;7.40;99.90;;;;;;2603556;54;20918;31
2022/10/05 02:50:26;;;;;;;26.85;17.40;;;7.40;99.90;;;;;;2622096;46;20056;31
2022/10/05 02:53:07;;;;;;;35.85;19.77;;;7.30;99.90;;;;;;2603446;54;20046;31
2022/10/05 02:55:45;;;;;;;36.67;19.75;;;7.30;99.90;;;;;;2622056;46;20976;31
2022/10/05 02:58:23;;;;;;;30.20;20.67;;;7.30;99.90;;;;;;2603349;54;20076;31
2022/10/05 03:01:00;;;;;;;34.85;21.80;;;7.30;99.90;;;;;;2603336;54;21066;31
2022/10/05 03:03:39;;;;;;;31.40;20.35;;;7.30;99.90;;;;;;2603274;54;20956;31
2022/10/05 03:06:16;;;;;;;30.20;19.20;;;7.20;99.90;;;;;;2603312;54;20026;31
2022/10/05 03:08:53;;;;;;;28.95;19.20;;;7.40;99.90;;;;;;2603359;54;20030;31
2022/10/05 03:11:31;;;;;;;28.07;18.97;;;7.20;99.90;;;;;;2603390;54;20624;31
2022/10/05 03:14:08;;;;;;;29.90;19.45;;;7.20;99.90;;;;;;2621891;46;20864;31
2022/10/05 03:16:49;;;;;;;24.00;18.10;;;7.20;99.90;;;;;;2603564;54;20049;31
2022/10/05 03:19:48;;;;;;;30.13;18.90;;;7.20;99.90;;;;;;2603325;54;20060;31
2022/10/05 03:22:23;;;;;;;24.55;17.80;;;7.20;99.90;;;;;;2622089;46;20049;31
2022/10/05 03:25:19;;;;;;;31.38;18.50;;;7.20;99.90;;;;;;2701517;39;20553;31
2022/10/05 03:27:57;;;;;;;25.83;17.77;;;7.20;99.90;;;;;;2603439;54;20702;31
2022/10/05 03:30:33;;;;;;;26.00;17.55;;;7.20;99.90;;;;;;2603409;54;20027;31
2022/10/05 03:33:12;;;;;;;27.95;16.30;;;7.20;99.90;;;;;;2603483;54;20030;31
2022/10/05 03:35:52;;;;;;;24.30;15.93;;;7.20;99.90;;;;;;2621700;46;20572;31
2022/10/05 03:38:29;;;;;;;27.35;16.45;;;7.20;99.90;;;;;;2603448;54;20801;31
2022/10/05 03:41:08;;;;;;;27.40;16.40;;;7.20;99.90;;;;;;2701560;39;21512;31
2022/10/05 03:44:12;;;;;;;22.70;14.50;;;7.30;99.90;;;;;;2701559;39;20536;31
2022/10/05 03:46:46;;;;;;;22.55;16.00;;;7.30;99.90;;;;;;2602788;54;20596;31
2022/10/05 03:49:25;;;;;;;24.13;16.10;;;7.30;99.90;;;;;;2621471;46;20905;31
2022/10/05 03:52:05;;;;;;;25.23;15.65;;;7.30;99.90;;;;;;2603389;54;20038;31
2022/10/05 03:54:41;;;;;;;22.13;14.20;;;7.30;99.90;;;;;;2621827;46;20827;31
2022/10/05 03:57:17;;;;;;;30.85;15.57;;;7.30;99.90;;;;;;2603322;54;20804;31
2022/10/05 03:59:56;;;;;;;25.90;16.27;;;7.30;99.90;;;;;;2701437;39;20478;31
2022/10/05 04:02:32;;;;;;;26.00;15.32;;;7.30;99.90;;;;;;2603232;54;20620;31
2022/10/05 04:05:07;;;;;;;;;;;7.30;99.90;;;;;;2603408;54;20026;31
2022/10/05 04:07:45;;;;;;;21.85;13.85;;;7.30;99.90;;;;;;2603401;54;20497;31
2022/10/05 04:10:24;;;;;;;26.30;15.02;;;7.30;99.90;;;;;;2603267;54;20046;31
2022/10/05 04:13:02;;;;;;;18.47;13.23;;;7.30;99.90;;;;;;2603170;54;20033;31
2022/10/05 04:15:39;;;;;;;19.40;13.27;;;7.30;99.90;;;;;;2603141;54;20956;31
2022/10/05 04:18:19;;;;;;;22.85;14.60;;;7.30;99.90;;;;;;2621843;46;20773;31
2022/10/05 04:20:56;;;;;;;20.85;14.18;;;7.30;99.90;;;;;;2621468;46;20045;31
2022/10/05 04:23:48;;;;;;;23.45;14.05;;;7.30;99.90;;;;;;2603191;47;20759;31
2022/10/05 04:26:22;;;;;;;19.55;12.75;;;7.30;99.90;;;;;;2602959;54;20085;31
2022/10/05 04:28:59;;;;;;;20.73;13.43;;;7.30;99.90;;;;;;2621850;46;20922;31
2022/10/05 04:31:38;;;;;;;;;;;7.30;99.90;;;;;;2603328;54;20038;31
2022/10/05 04:34:17;;;;;;;17.87;12.33;;;7.30;99.90;;;;;;2621702;46;19934;31
2022/10/05 04:36:54;;;;;;;18.92;12.88;;;7.40;99.90;;;;;;2603095;54;20254;31
2022/10/05 04:39:36;;;;;;;23.15;14.10;;;7.30;99.90;;;;;;2603065;54;20057;31
2022/10/05 04:42:12;;;;;;;21.90;14.23;;;7.40;99.90;;;;;;2602914;54;20030;31
2022/10/05 04:44:56;;;;;;;21.70;14.43;;;7.40;99.90;;;;;;2603108;54;19942;31
2022/10/05 04:47:46;;;;;;;30.90;21.10;;;7.40;99.90;;;;;;2602544;54;20023;31
2022/10/05 04:50:25;;;;;;;26.92;18.48;;;7.40;99.90;;;;;;2602941;54;20973;31
2022/10/05 04:53:14;;;;;;;21.38;13.82;;;7.40;99.90;;;;;;2603114;54;20785;31
2022/10/05 04:55:55;;;;;;;20.65;13.65;;;7.50;99.90;;;;;;2602950;54;20085;31
2022/10/05 04:58:47;;;;;;;20.50;13.05;;;7.50;99.90;;;;;;2719696;39;22429;31
2022/10/05 05:01:36;;;;;;;19.73;12.82;;;7.60;99.90;;;;;;2602793;54;20022;31
2022/10/05 05:04:22;;;;;;;19.90;13.40;;;7.60;99.90;;;;;;2603400;54;20028;31
2022/10/05 05:06:59;;;;;;;21.95;12.70;;;7.60;99.90;;;;;;2603526;54;20133;31
2022/10/05 05:10:03;;;;;;;17.40;11.45;;;7.60;99.90;;;;;;2702454;39;20354;31
2022/10/05 05:12:45;;;;;;;19.15;12.00;;;7.70;99.90;;;;;;2603624;54;21452;31
2022/10/05 05:15:24;;;;;;;24.87;14.37;;;7.70;99.90;;;;;;2622542;46;20818;31
2022/10/05 05:18:08;;;;;;;20.73;12.63;;;7.70;99.90;;;;;;2603722;54;20969;31
2022/10/05 05:20:50;;;;;;;19.30;12.23;;;8.00;99.90;;;;;;2603581;54;20038;31
2022/10/05 05:23:29;;;;;;;21.42;12.27;;;7.80;99.90;;;;;;2603876;54;20817;31
2022/10/05 05:26:09;;;;;;;21.60;12.95;;;7.80;99.90;;;;;;2603846;46;20789;31
2022/10/05 05:28:52;;;;;;;20.60;14.00;;;7.80;99.90;;;;;;2603843;54;20085;31
2022/10/05 05:31:33;;;;;;;27.73;15.32;;;7.90;99.90;;;;;;2603854;54;20022;31
2022/10/05 05:34:16;;;;;;;21.23;14.10;;;7.90;99.90;;;;;;2603585;54;20034;31
2022/10/05 05:36:54;;;;;;;22.90;16.20;;;7.90;99.90;;;;;;2602925;54;20932;31
2022/10/05 05:39:30;;;;;;;40.33;25.88;;;7.90;99.90;;;;;;2603400;54;21407;31
2022/10/05 05:42:19;;;;;;;28.38;20.42;;;7.90;99.90;;;;;;2603736;54;20581;31
2022/10/05 05:44:58;;;;;;;25.60;18.10;;;8.00;99.90;;;;;;2603694;54;20165;31
2022/10/05 05:47:36;;;;;;;20.98;16.48;;;8.20;99.90;;;;;;2603568;54;20037;31
2022/10/05 05:50:23;;;;;;;17.05;12.90;;;8.10;99.90;;;;;;2622133;46;20033;31
2022/10/05 05:53:03;;;;;;;19.27;11.93;;;8.10;99.90;;;;;;2603549;54;20022;31
2022/10/05 05:55:40;;;;;;;19.40;12.00;;;8.10;99.90;;;;;;2603713;54;20027;31
2022/10/05 05:58:22;;;;;;;16.05;10.80;;;8.20;99.90;;;;;;2603509;54;20840;31
2022/10/05 06:01:02;;;;;;;14.15;10.85;;;8.20;99.90;;;;;;2603707;54;20022;31
2022/10/05 06:03:39;;;;;;;14.85;10.55;;;8.40;99.90;;;;;;2603448;54;20838;31
2022/10/05 06:06:17;;;;;;;14.77;9.73;;;8.50;99.90;;;;;;2603423;54;20526;31
2022/10/05 06:08:55;;;;;;;15.45;9.25;;;8.90;99.90;;;;;;2603478;54;20030;31
2022/10/05 06:11:55;;;;;;;14.45;9.48;;;9.40;99.90;;;;;;2603310;54;20104;31
2022/10/05 06:14:34;;;;;;;11.77;7.72;;;10.10;99.90;;;;;;2603335;54;20046;31
2022/10/05 06:17:14;;;;;;;12.60;7.40;;;10.70;99.90;;;;;;2603636;54;20820;31
2022/10/05 06:19:49;;;;;;;16.15;7.53;;;11.30;99.90;;;;;;2621966;46;20042;31
2022/10/05 06:22:26;;;;;;;12.63;6.67;;;11.80;99.90;;;;;;2603541;54;20804;31
2022/10/05 06:25:05;;;;;;;16.77;6.60;;;12.30;99.90;;;;;;2603578;54;20030;31
2022/10/05 06:27:40;;;;;;;8.63;6.32;;;12.80;99.90;;;;;;2603573;54;20037;31
2022/10/05 06:30:15;;;;;;;10.40;7.00;;;13.10;99.90;;;;;;2603555;54;20092;31
2022/10/05 06:33:04;;;;;;;9.45;7.25;;;13.00;99.90;;;;;;2603646;54;20837;31
2022/10/05 06:35:48;;;;;;;11.07;6.95;;;12.90;99.90;;;;;;2603439;54;20908;31
2022/10/05 06:38:32;;;;;;;10.75;7.22;;;12.90;99.90;;;;;;2603317;54;20057;31
2022/10/05 06:41:12;;;;;;;15.30;7.35;;;12.90;99.90;;;;;;2603510;54;20027;31
2022/10/05 06:43:50;;;;;;;19.03;7.60;;;12.80;99.90;;;;;;2621937;46;20096;31
2022/10/05 06:46:43;;;;;;;9.73;7.20;;;12.70;99.90;;;;;;2603618;54;20049;31
2022/10/05 06:49:45;;;;;;;10.50;7.10;;;12.70;99.90;;;;;;2621974;46;20030;31
2022/10/05 06:52:45;;;;;;;13.10;7.13;;;12.90;99.90;;;;;;2603582;54;20051;31
2022/10/05 06:55:23;;;;;;;11.98;6.72;;;13.10;99.90;;;;;;2621545;46;20247;31
2022/10/05 06:58:04;;;;;;;8.60;6.50;;;13.50;99.90;;;;;;2603431;54;20824;31
2022/10/05 07:00:42;;;;;;;11.10;6.75;;;14.00;99.90;;;;;;2603395;54;20866;31
2022/10/05 07:03:20;;;;;;;13.55;6.90;;;14.20;99.90;;;;;;2603515;54;20861;31
2022/10/05 07:06:05;;;;;;;12.07;6.07;;;14.20;99.90;;;;;;2603391;54;20037;31
2022/10/05 07:08:56;;;;;;;9.23;6.88;;;14.00;99.90;;;;;;2603384;54;19954;31
2022/10/05 07:11:39;;;;;;;12.60;6.78;;;13.90;99.90;;;;;;2603383;54;20044;31
2022/10/05 07:14:25;;;;;;;12.43;7.03;;;13.70;99.90;;;;;;2603346;54;20033;31
2022/10/05 07:17:18;;;;;;;10.60;6.70;;;13.70;99.90;;;;;;2603562;54;20085;31
2022/10/05 07:19:59;;;;;;;15.90;7.03;;;13.60;99.90;;;;;;2603133;54;20037;31
2022/10/05 07:22:49;;;;;;;15.40;7.63;;;13.60;99.90;;;;;;2603192;54;20042;31
2022/10/05 07:25:24;;;;;;;9.93;6.93;;;13.40;99.90;;;;;;2603215;54;20909;31
2022/10/05 07:28:03;;;;;;;;;;;13.40;99.90;;;;;;2603502;54;20947;31
2022/10/05 07:30:43;;;;;;;10.77;6.50;;;13.30;99.90;;;;;;2603336;54;19942;31
2022/10/05 07:33:23;;;;;;;11.85;7.43;;;13.30;99.90;;;;;;2603543;54;19934;31
2022/10/05 07:38:55;;;;;;;11.43;7.15;;;13.40;99.90;;;;;;2603423;54;20053;31
2022/10/05 07:41:34;;;;;;;14.55;6.50;;;13.40;99.90;;;;;;2602637;54;19954;31
2022/10/05 07:44:14;;;;;;;10.38;6.75;;;13.50;99.90;;;;;;2602327;54;20041;31
2022/10/05 07:46:55;;;;;;;14.57;7.13;;;13.70;99.90;;;;;;2603251;54;20034;31
2022/10/05 07:49:38;;;;;;;10.13;6.80;;;13.90;99.90;;;;;;2603244;54;20113;31
2022/10/05 07:52:17;;;;;;;11.60;7.18;;;14.00;99.90;;;;;;2603290;54;20053;31
2022/10/05 07:54:51;;;;;;;12.75;6.68;;;14.10;99.90;;;;;;2603270;54;20915;31
2022/10/05 07:57:32;;;;;;;13.77;7.43;;;14.20;99.90;;;;;;2603210;54;20846;31
2022/10/05 08:00:07;;;;;;;12.88;6.60;;;14.40;99.90;;;;;;2603375;54;20022;31
2022/10/05 08:02:51;;;;;;;14.55;6.88;;;14.70;99.90;;;;;;2603300;54;20022;31
2022/10/05 08:05:28;;;;;;;;;;;14.80;99.90;;;;;;2603385;54;20018;31
2022/10/05 08:08:05;;;;;;;;;;;14.90;99.90;;;;;;2603685;54;20002;31
2022/10/05 08:10:40;;;;;;;13.98;6.13;;;15.00;99.90;;;;;;2604536;46;19957;31
2022/10/05 08:13:20;;;;;;;17.83;6.70;;;15.10;99.90;;;;;;2603065;54;20833;31
2022/10/05 08:15:57;;;;;;;15.43;6.55;;;15.20;99.90;;;;;;2622086;46;20910;31
2022/10/05 08:18:41;;;;;;;15.50;6.28;;;15.30;99.90;;;;;;2602904;54;20068;31
2022/10/05 08:21:16;;;;;;;12.30;5.97;;;15.40;99.90;;;;;;2603429;54;20848;31
2022/10/05 08:23:54;;;;;;;17.63;6.87;;;15.60;99.90;;;;;;2603000;54;20038;31
2022/10/05 08:26:30;;;;;;;11.95;5.00;;;15.80;99.90;;;;;;2603068;54;20085;31
2022/10/05 08:29:15;;;;;;;9.25;5.32;;;16.00;99.90;;;;;;2603162;54;20037;31
2022/10/05 08:31:51;;;;;;;12.83;4.63;;;16.20;99.90;;;;;;2603358;54;19961;31
2022/10/05 08:34:29;;;;;;;9.90;4.40;;;16.40;99.90;;;;;;2602977;54;20096;31
2022/10/05 08:37:05;;;;;;;8.43;3.30;;;16.70;99.90;;;;;;2602952;54;20038;31
2022/10/05 08:39:42;;;;;;;5.22;3.20;;;16.90;99.90;;;;;;2602106;54;20960;31
2022/10/05 08:42:47;;;;;;;8.15;3.00;;;17.10;99.90;;;;;;2603070;54;20085;31
2022/10/05 08:46:04;;;;;;;5.32;2.78;;;17.30;99.90;;;;;;2602950;54;20849;31
2022/10/05 08:49:04;;;;;;;8.80;3.20;;;17.50;99.90;;;;;;2603343;54;20027;31
2022/10/05 08:52:11;;;;;;;5.20;2.45;;;17.60;99.90;;;;;;2603235;54;20494;31
2022/10/05 08:54:55;;;;;;;4.03;2.28;;;17.80;99.90;;;;;;2602904;54;20866;31
2022/10/05 08:57:43;;;;;;;6.82;2.40;;;17.90;99.90;;;;;;2616631;46;20026;31
2022/10/05 09:00:23;;;;;;;5.45;2.13;;;18.10;99.90;;;;;;2603074;54;20831;31
2022/10/05 09:03:20;;;;;;;7.25;1.90;;;18.30;99.90;;;;;;2602143;54;20022;31
2022/10/05 09:06:25;;;;;;;6.05;2.20;;;18.40;99.90;;;;;;2603023;54;20895;31
2022/10/05 09:09:22;;;;;;;7.95;2.10;;;18.50;99.90;;;;;;2602917;54;20913;31
2022/10/05 09:12:03;;;;;;;6.20;2.30;;;18.40;99.90;;;;;;2602827;54;20027;31
2022/10/05 09:14:46;;;;;;;8.73;2.47;;;18.40;99.90;;;;;;2603164;54;20022;31
2022/10/05 09:17:40;;;;;;;5.20;2.15;;;18.50;99.90;;;;;;2602985;54;20996;31
2022/10/05 09:20:33;;;;;;;4.28;1.95;;;18.60;99.90;;;;;;2603064;54;20899;31
2022/10/05 09:23:15;;;;;;;6.07;1.83;;;18.60;99.90;;;;;;2602635;54;20860;31
2022/10/05 09:26:06;;;;;;;6.43;2.50;;;18.70;99.90;;;;;;2603092;54;20234;31
2022/10/05 09:28:46;;;;;;;4.73;2.00;;;18.70;99.90;;;;;;2603247;54;20034;31
2022/10/05 09:31:37;;;;;;;5.75;1.80;;;18.60;99.90;;;;;;2603025;54;20121;31
2022/10/05 09:34:31;;;;;;;6.93;2.58;;;18.70;99.90;;;;;;2621589;47;20804;31
2022/10/05 09:37:57;;;;;;;11.55;2.17;;;18.70;99.90;;;;;;2602836;54;20105;31
2022/10/05 09:41:00;;;;;;;7.13;1.80;;;18.70;99.90;;;;;;2602785;54;20027;31
2022/10/05 09:43:52;;;;;;;5.67;1.97;;;18.70;99.90;;;;;;2602900;54;20765;31
2022/10/05 09:46:45;;;;;;;4.97;3.08;;;18.70;99.90;;;;;;2602960;54;20246;31
2022/10/05 09:49:53;;;;;;;5.55;2.10;;;18.80;99.90;;;;;;2613024;47;20035;31
2022/10/05 09:52:51;;;;;;;3.35;1.88;;;18.80;99.90;;;;;;2603730;54;20049;31
2022/10/05 09:56:04;;;;;;;5.22;1.20;;;18.80;99.90;;;;;;2608944;46;20081;31
2022/10/05 09:58:57;;;;;;;4.55;1.85;;;18.90;99.90;;;;;;2701944;39;20517;31
2022/10/05 10:01:43;;;;;;;3.55;1.88;;;18.90;99.90;;;;;;2603928;54;20034;31
2022/10/05 10:04:36;;;;;;;4.68;1.83;;;19.00;99.90;;;;;;2603539;54;20042;31
2022/10/05 10:07:29;;;;;;;5.40;1.90;;;19.10;99.90;;;;;;2603764;54;20100;31
2022/10/05 10:10:04;;;;;;;5.40;1.40;;;19.20;99.90;;;;;;2603554;54;24063;31
2022/10/05 10:12:44;;;;;;;2.38;1.10;;;19.20;99.90;;;;;;2603610;54;25135;31
2022/10/05 10:15:51;;;;;;;2.35;0.75;;;19.20;99.90;;;;;;2621458;46;20030;31
2022/10/05 10:21:14;;;;;;;2.95;0.90;;;19.30;99.90;;;;;;2773768;31;20585;31
2022/10/05 10:24:13;;;;;;;3.97;1.23;;;19.40;99.90;;;;;;2603475;54;20057;31
2022/10/05 10:27:15;;;;;;;4.95;1.60;;;19.50;99.90;;;;;;2603493;54;20912;31
2022/10/05 10:29:58;;;;;;;2.67;1.13;;;19.70;99.90;;;;;;2603415;54;20902;31
2022/10/05 10:32:33;;;;;;;2.85;0.80;;;19.80;99.90;;;;;;2603518;54;20081;31
2022/10/05 10:35:24;;;;;;;4.65;1.20;;;19.90;99.90;;;;;;2621953;46;20158;31
2022/10/05 10:37:59;;;;;;;5.47;1.00;;;19.90;99.90;;;;;;2603697;54;20923;31
2022/10/05 10:40:40;;;;;;;3.37;0.90;;;19.90;99.90;;;;;;2603790;54;20026;31
2022/10/05 10:43:30;;;;;;;6.27;1.00;;;20.00;99.90;;;;;;2603612;54;20915;31
2022/10/05 10:46:10;;;;;;;3.45;0.90;;;20.10;99.90;;;;;;2603357;54;20933;31
2022/10/05 10:48:44;;;;;;;3.15;1.10;;;20.20;99.90;;;;;;2773491;31;20537;31
2022/10/05 10:51:27;;;;;;;4.95;1.10;;;20.30;99.90;;;;;;2702001;39;20387;31
2022/10/05 10:54:21;;;;;;;5.03;1.38;;;20.40;99.90;;;;;;2720488;39;20430;31
2022/10/05 10:56:58;;;;;;;3.40;1.15;;;20.40;99.90;;;;;;2603581;54;20026;31
2022/10/05 11:00:23;;;;;;;4.95;1.63;;;20.60;99.90;;;;;;2621763;46;20022;31
2022/10/05 11:03:27;;;;;;;3.85;1.42;;;20.60;99.90;;;;;;2603557;54;20875;31
2022/10/05 11:06:44;;;;;;;3.30;1.50;;;20.60;99.90;;;;;;2607870;46;20892;31
2022/10/05 11:09:30;;;;;;;3.77;1.47;;;20.60;99.90;;;;;;2603417;54;20805;31
2022/10/05 11:12:16;;;;;;;3.10;1.40;;;20.50;99.90;;;;;;2603583;54;20031;31
2022/10/05 11:15:09;;;;;;;6.85;1.60;;;20.60;99.90;;;;;;2604164;46;20898;31
2022/10/05 11:18:03;;;;;;;5.05;1.40;;;20.80;99.90;;;;;;2603189;54;20037;31
2022/10/05 11:21:18;;;;;;;2.60;1.35;;;20.80;99.90;;;;;;2612408;46;20045;31
2022/10/05 11:24:37;;;;;;;2.80;1.10;;;20.80;99.90;;;;;;2607239;46;20023;31
2022/10/05 11:27:35;;;;;;;4.45;1.20;;;21.00;99.90;;;;;;2603168;54;20045;31
2022/10/05 11:30:19;;;;;;;3.08;1.48;;;21.10;99.90;;;;;;2621608;46;20136;31
2022/10/05 11:32:55;;;;;;;3.10;1.40;;;21.20;99.90;;;;;;2603348;54;20116;31
2022/10/05 11:35:50;;;;;;;5.65;1.67;;;21.20;99.90;;;;;;2603432;54;20050;31
2022/10/05 11:38:36;;;;;;;6.18;1.77;;;21.20;99.90;;;;;;2603001;54;20741;31
2022/10/05 11:41:20;;;;;;;3.95;1.50;;;21.10;99.90;;;;;;2603532;54;20023;31
2022/10/05 11:44:15;;;;;;;2.60;1.40;;;21.20;99.90;;;;;;2603308;54;20050;31
2022/10/05 11:46:56;;;;;;;4.63;1.52;;;21.20;99.90;;;;;;2603075;54;20031;31
2022/10/05 11:49:38;;;;;;;8.35;3.03;;;21.20;99.90;;;;;;2603432;54;20022;31
2022/10/05 11:52:15;;;;;;;3.90;1.30;;;21.20;99.90;;;;;;2603164;54;20053;31
2022/10/05 11:55:05;;;;;;;2.40;1.30;;;21.20;99.90;;;;;;2603351;54;20030;31
2022/10/05 11:57:50;;;;;;;8.57;1.40;;;21.20;99.90;;;;;;2603284;54;20057;31
2022/10/05 12:00:39;;;;;;;3.33;1.77;;;21.30;99.90;;;;;;2603349;54;20861;31
2022/10/05 12:03:39;;;;;;;5.75;1.48;;;21.20;99.90;;;;;;2603495;54;20056;31
2022/10/05 12:06:28;;;;;;;6.18;1.50;;;21.20;99.90;;;;;;2603162;54;20027;31
2022/10/05 12:09:09;;;;;;;5.15;1.20;;;21.20;99.90;;;;;;2603401;54;20810;31
2022/10/05 12:11:53;;;;;;;3.10;1.30;;;21.10;99.90;;;;;;2603204;54;20085;31
2022/10/05 12:14:36;;;;;;;3.20;1.10;;;21.10;99.90;;;;;;2603114;54;20530;31
2022/10/05 12:17:18;;;;;;;3.72;1.00;;;21.20;99.90;;;;;;2701618;39;20509;31
2022/10/05 12:19:58;;;;;;;3.78;1.60;;;21.20;99.90;;;;;;2603341;54;20910;31
2022/10/05 12:22:31;;;;;;;5.75;1.30;;;21.10;99.90;;;;;;2621445;46;20756;31
2022/10/05 12:25:17;;;;;;;5.75;1.20;;;21.20;99.90;;;;;;2603129;54;20026;31
2022/10/05 12:27:54;;;;;;;2.93;1.23;;;21.20;99.90;;;;;;2603094;54;20923;31
2022/10/05 12:30:34;;;;;;;5.22;1.15;;;21.20;99.90;;;;;;2603312;54;20030;31
2022/10/05 12:33:14;;;;;;;4.70;1.80;;;21.20;99.90;;;;;;2602896;54;20026;31
2022/10/05 12:35:52;;;;;;;2.90;1.35;;;21.30;99.90;;;;;;2603305;54;20030;31
2022/10/05 12:38:28;;;;;;;3.03;0.98;;;21.30;99.90;;;;;;2621444;46;25055;31
2022/10/05 12:41:08;;;;;;;3.17;1.65;;;21.20;99.90;;;;;;2621750;46;20906;31
2022/10/05 12:43:47;;;;;;;6.75;1.15;;;21.30;99.90;;;;;;2603184;54;20030;31
2022/10/05 12:46:27;;;;;;;3.75;1.30;;;21.30;99.90;;;;;;2602299;54;20140;31
2022/10/05 12:49:24;;;;;;;5.07;1.45;;;21.30;99.90;;;;;;2603064;54;20026;31
2022/10/05 12:52:01;;;;;;;2.65;1.05;;;21.30;99.90;;;;;;2602983;54;20057;31
2022/10/05 12:54:43;;;;;;;3.20;1.10;;;21.30;99.90;;;;;;2603312;54;20030;31
2022/10/05 13:00:08;;;;;;;6.17;1.47;;;21.20;99.90;;;;;;2603403;54;20037;31
2022/10/05 13:02:45;;;;;;;7.15;1.27;;;21.20;99.90;;;;;;2621308;47;20027;31
2022/10/05 13:05:28;;;;;;;4.80;1.70;;;21.20;99.90;;;;;;2603074;54;20985;31
2022/10/05 13:08:19;;;;;;;8.40;1.23;;;21.20;99.90;;;;;;2603010;54;20870;31
2022/10/05 13:10:56;;;;;;;4.10;1.10;;;21.20;99.90;;;;;;2621362;47;20731;31
2022/10/05 13:13:53;;;;;;;2.88;1.17;;;21.20;99.90;;;;;;2602860;54;20062;31
2022/10/05 13:16:34;;;;;;;6.20;1.20;;;21.20;99.90;;;;;;2602928;54;20057;31
2022/10/05 13:19:09;;;;;;;7.30;1.33;;;21.30;99.90;;;;;;2602962;54;20920;31
2022/10/05 13:22:10;;;;;;;1.75;1.02;;;21.30;99.90;;;;;;2602814;54;20054;31
2022/10/05 13:24:51;;;;;;;2.75;1.45;;;21.30;99.90;;;;;;2603435;54;20856;31
2022/10/05 13:27:26;;;;;;;4.70;1.30;;;21.30;99.90;;;;;;2603636;54;19934;31
2022/10/05 13:30:03;;;;;;;3.60;1.05;;;21.30;99.90;;;;;;2604160;54;20026;31
2022/10/05 13:32:39;;;;;;;3.40;1.05;;;21.30;99.90;;;;;;2604040;54;20035;31
2022/10/05 13:35:26;;;;;;;3.15;1.33;;;21.30;99.90;;;;;;2603908;54;20085;31
2022/10/05 13:38:07;;;;;;;6.47;1.15;;;21.30;99.90;;;;;;2604164;54;20849;31
2022/10/05 13:40:47;;;;;;;4.97;1.20;;;21.30;99.90;;;;;;2603631;54;20023;31
2022/10/05 13:43:25;;;;;;;4.53;1.30;;;21.30;99.90;;;;;;2603745;54;20907;31
2022/10/05 13:46:04;;;;;;;6.63;1.53;;;21.30;99.90;;;;;;2603843;54;20030;31
2022/10/05 13:48:48;;;;;;;4.47;1.10;;;21.30;99.90;;;;;;2603822;54;20034;31
2022/10/05 13:51:24;;;;;;;2.45;1.17;;;21.30;99.90;;;;;;2603650;54;20093;31
2022/10/05 13:54:06;;;;;;;4.38;1.00;;;21.30;99.90;;;;;;2603788;54;20835;31
2022/10/05 13:56:44;;;;;;;1.80;0.75;;;21.30;99.90;;;;;;2603794;54;20031;31
2022/10/05 13:59:24;;;;;;;4.07;1.03;;;21.30;99.90;;;;;;2603886;54;20085;31
2022/10/05 14:02:00;;;;;;;3.55;1.00;;;21.30;99.90;;;;;;2603819;54;20832;31
2022/10/05 14:04:46;;;;;;;3.42;0.88;;;21.30;99.90;;;;;;2608912;46;20872;31
2022/10/05 14:07:33;;;;;;;5.60;1.10;;;21.30;99.90;;;;;;2622109;46;20113;31
2022/10/05 14:10:13;;;;;;;3.67;0.93;;;21.30;99.90;;;;;;2603709;54;20892;31
2022/10/05 14:15:24;;;;;;;4.83;0.80;;;21.30;99.90;;;;;;2603823;54;20025;31
2022/10/05 14:17:59;;;;;;;2.55;0.80;;;21.30;99.90;;;;;;2603744;54;20892;31
2022/10/05 14:20:40;;;;;;;8.40;0.95;;;21.30;99.90;;;;;;2603530;54;20052;31
2022/10/05 14:23:16;;;;;;;3.72;1.08;;;21.30;99.90;;;;;;2621855;46;20041;31
2022/10/05 14:25:58;;;;;;;4.15;0.70;;;21.20;99.90;;;;;;2603656;54;20030;31
2022/10/05 14:28:38;;;;;;;2.17;0.63;;;21.20;99.90;;;;;;2603541;54;20109;31